sensor_id;sensor_type;location;lat;lon;timestamp;P1;durP1;ratioP1;P2;durP2;ratioP2
44036;SDS011;62488;-37.670;-63.532;2022-08-18T00:01:54;2.22;;;1.00;;
44036;SDS011;62488;-37.670;-63.532;2022-08-18T00:04:29;3.38;;;1.02;;
44036;SDS011;62488;-37.670;-63.532;2022-08-18T00:06:56;0.90;;;0.70;;
44036;SDS011;62488;-37.670;-63.532;2022-08-18T00:09:23;1.55;;;0.50;;
44036;SDS011;62488;-37.670;-63.532;2022-08-18T00:11:50;0.80;;;0.80;;
44036;SDS011;62488;-37.670;-63.532;2022-08-18T00:14:18;1.48;;;1.38;;
44036;SDS011;62488;-37.670;-63.532;2022-08-18T00:16:46;3.47;;;1.65;;
44036;SDS011;62488;-37.670;-63.532;2022-08-18T00:19:14;1.92;;;1.73;;
44036;SDS011;62488;-37.670;-63.532;2022-08-18T00:21:41;1.30;;;1.17;;
44036;SDS011;62488;-37.670;-63.532;2022-08-18T00:24:08;1.55;;;1.20;;
44036;SDS011;62488;-37.670;-63.532;2022-08-18T00:26:36;1.40;;;1.30;;
44036;SDS011;62488;-37.670;-63.532;2022-08-18T00:29:03;1.10;;;0.98;;
44036;SDS011;62488;-37.670;-63.532;2022-08-18T00:31:30;1.10;;;1.05;;
44036;SDS011;62488;-37.670;-63.532;2022-08-18T00:33:58;1.35;;;1.23;;
44036;SDS011;62488;-37.670;-63.532;2022-08-18T00:36:25;1.48;;;1.38;;
44036;SDS011;62488;-37.670;-63.532;2022-08-18T00:38:53;2.58;;;1.60;;
44036;SDS011;62488;-37.670;-63.532;2022-08-18T00:41:20;3.25;;;1.40;;
44036;SDS011;62488;-37.670;-63.532;2022-08-18T00:43:51;1.63;;;1.40;;
44036;SDS011;62488;-37.670;-63.532;2022-08-18T00:46:20;1.40;;;1.30;;
44036;SDS011;62488;-37.670;-63.532;2022-08-18T00:48:49;1.55;;;1.38;;
44036;SDS011;62488;-37.670;-63.532;2022-08-18T00:54:02;2.33;;;1.95;;
44036;SDS011;62488;-37.670;-63.532;2022-08-18T00:56:37;1.55;;;1.42;;
44036;SDS011;62488;-37.670;-63.532;2022-08-18T00:59:10;1.45;;;1.35;;
44036;SDS011;62488;-37.670;-63.532;2022-08-18T01:01:53;1.38;;;1.27;;
44036;SDS011;62488;-37.670;-63.532;2022-08-18T01:04:27;1.35;;;1.02;;
44036;SDS011;62488;-37.670;-63.532;2022-08-18T01:07:09;2.08;;;1.40;;
44036;SDS011;62488;-37.670;-63.532;2022-08-18T01:09:42;2.33;;;1.58;;
44036;SDS011;62488;-37.670;-63.532;2022-08-18T01:12:09;1.35;;;0.93;;
44036;SDS011;62488;-37.670;-63.532;2022-08-18T01:14:36;1.02;;;1.00;;
44036;SDS011;62488;-37.670;-63.532;2022-08-18T01:17:04;1.50;;;1.40;;
44036;SDS011;62488;-37.670;-63.532;2022-08-18T01:19:49;1.40;;;1.30;;
44036;SDS011;62488;-37.670;-63.532;2022-08-18T01:25:15;1.50;;;1.40;;
44036;SDS011;62488;-37.670;-63.532;2022-08-18T01:28:03;2.45;;;1.50;;
44036;SDS011;62488;-37.670;-63.532;2022-08-18T01:30:42;1.90;;;1.60;;
44036;SDS011;62488;-37.670;-63.532;2022-08-18T01:33:15;2.28;;;1.90;;
44036;SDS011;62488;-37.670;-63.532;2022-08-18T01:35:45;2.05;;;1.80;;
44036;SDS011;62488;-37.670;-63.532;2022-08-18T01:38:15;2.40;;;1.88;;
44036;SDS011;62488;-37.670;-63.532;2022-08-18T01:40:44;3.00;;;2.20;;
44036;SDS011;62488;-37.670;-63.532;2022-08-18T01:43:12;2.47;;;1.98;;
44036;SDS011;62488;-37.670;-63.532;2022-08-18T01:45:40;3.90;;;3.00;;
44036;SDS011;62488;-37.670;-63.532;2022-08-18T01:48:08;4.53;;;1.98;;
44036;SDS011;62488;-37.670;-63.532;2022-08-18T01:50:35;2.15;;;1.95;;
44036;SDS011;62488;-37.670;-63.532;2022-08-18T01:53:07;1.50;;;1.40;;
44036;SDS011;62488;-37.670;-63.532;2022-08-18T01:55:37;1.75;;;1.50;;
44036;SDS011;62488;-37.670;-63.532;2022-08-18T01:58:07;1.60;;;1.50;;
44036;SDS011;62488;-37.670;-63.532;2022-08-18T02:00:34;1.90;;;1.80;;
44036;SDS011;62488;-37.670;-63.532;2022-08-18T02:03:03;2.10;;;1.90;;
44036;SDS011;62488;-37.670;-63.532;2022-08-18T02:05:37;1.73;;;1.60;;
44036;SDS011;62488;-37.670;-63.532;2022-08-18T02:08:07;2.35;;;2.15;;
44036;SDS011;62488;-37.670;-63.532;2022-08-18T02:10:37;2.22;;;1.85;;
44036;SDS011;62488;-37.670;-63.532;2022-08-18T02:13:04;1.80;;;1.70;;
44036;SDS011;62488;-37.670;-63.532;2022-08-18T02:15:31;1.42;;;1.33;;
44036;SDS011;62488;-37.670;-63.532;2022-08-18T02:17:59;1.50;;;1.40;;
44036;SDS011;62488;-37.670;-63.532;2022-08-18T02:20:27;1.73;;;1.58;;
44036;SDS011;62488;-37.670;-63.532;2022-08-18T02:22:55;2.95;;;1.30;;
44036;SDS011;62488;-37.670;-63.532;2022-08-18T02:25:23;1.40;;;1.30;;
44036;SDS011;62488;-37.670;-63.532;2022-08-18T02:27:50;1.45;;;1.35;;
44036;SDS011;62488;-37.670;-63.532;2022-08-18T02:30:17;1.42;;;1.20;;
44036;SDS011;62488;-37.670;-63.532;2022-08-18T02:32:48;1.25;;;1.15;;
44036;SDS011;62488;-37.670;-63.532;2022-08-18T02:35:15;1.30;;;1.20;;
44036;SDS011;62488;-37.670;-63.532;2022-08-18T02:37:43;1.58;;;1.48;;
44036;SDS011;62488;-37.670;-63.532;2022-08-18T02:40:14;1.80;;;1.70;;
44036;SDS011;62488;-37.670;-63.532;2022-08-18T02:42:42;2.97;;;1.63;;
44036;SDS011;62488;-37.670;-63.532;2022-08-18T02:45:11;2.10;;;1.90;;
44036;SDS011;62488;-37.670;-63.532;2022-08-18T02:47:39;1.38;;;1.30;;
44036;SDS011;62488;-37.670;-63.532;2022-08-18T02:50:06;1.58;;;1.48;;
44036;SDS011;62488;-37.670;-63.532;2022-08-18T02:52:34;2.50;;;1.20;;
44036;SDS011;62488;-37.670;-63.532;2022-08-18T02:55:01;1.73;;;1.63;;
44036;SDS011;62488;-37.670;-63.532;2022-08-18T02:57:29;2.40;;;1.33;;
44036;SDS011;62488;-37.670;-63.532;2022-08-18T02:59:56;1.65;;;1.55;;
44036;SDS011;62488;-37.670;-63.532;2022-08-18T03:02:25;1.02;;;1.00;;
44036;SDS011;62488;-37.670;-63.532;2022-08-18T03:04:52;1.60;;;1.50;;
44036;SDS011;62488;-37.670;-63.532;2022-08-18T03:07:19;2.13;;;1.48;;
44036;SDS011;62488;-37.670;-63.532;2022-08-18T03:09:46;1.60;;;1.50;;
44036;SDS011;62488;-37.670;-63.532;2022-08-18T03:12:13;1.58;;;1.48;;
44036;SDS011;62488;-37.670;-63.532;2022-08-18T03:14:40;2.08;;;1.45;;
44036;SDS011;62488;-37.670;-63.532;2022-08-18T03:17:08;1.20;;;1.15;;
44036;SDS011;62488;-37.670;-63.532;2022-08-18T03:19:35;1.05;;;0.90;;
44036;SDS011;62488;-37.670;-63.532;2022-08-18T03:22:03;1.08;;;1.08;;
44036;SDS011;62488;-37.670;-63.532;2022-08-18T03:24:32;1.00;;;1.00;;
44036;SDS011;62488;-37.670;-63.532;2022-08-18T03:27:03;1.95;;;1.73;;
44036;SDS011;62488;-37.670;-63.532;2022-08-18T03:29:32;2.10;;;1.67;;
44036;SDS011;62488;-37.670;-63.532;2022-08-18T03:32:00;1.30;;;1.20;;
44036;SDS011;62488;-37.670;-63.532;2022-08-18T03:34:29;1.40;;;1.30;;
44036;SDS011;62488;-37.670;-63.532;2022-08-18T03:36:56;1.30;;;1.20;;
44036;SDS011;62488;-37.670;-63.532;2022-08-18T03:39:24;3.42;;;1.30;;
44036;SDS011;62488;-37.670;-63.532;2022-08-18T03:41:54;3.17;;;2.05;;
44036;SDS011;62488;-37.670;-63.532;2022-08-18T03:44:22;1.13;;;1.13;;
44036;SDS011;62488;-37.670;-63.532;2022-08-18T03:46:50;1.15;;;1.13;;
44036;SDS011;62488;-37.670;-63.532;2022-08-18T03:49:17;1.23;;;1.13;;
44036;SDS011;62488;-37.670;-63.532;2022-08-18T03:51:45;1.30;;;1.20;;
44036;SDS011;62488;-37.670;-63.532;2022-08-18T03:54:16;1.60;;;1.50;;
44036;SDS011;62488;-37.670;-63.532;2022-08-18T03:56:44;0.82;;;0.82;;
44036;SDS011;62488;-37.670;-63.532;2022-08-18T03:59:19;4.53;;;1.30;;
44036;SDS011;62488;-37.670;-63.532;2022-08-18T04:01:48;1.80;;;1.70;;
44036;SDS011;62488;-37.670;-63.532;2022-08-18T04:04:19;2.30;;;1.98;;
44036;SDS011;62488;-37.670;-63.532;2022-08-18T04:06:51;1.50;;;1.40;;
44036;SDS011;62488;-37.670;-63.532;2022-08-18T04:09:21;1.35;;;1.25;;
44036;SDS011;62488;-37.670;-63.532;2022-08-18T04:11:50;1.60;;;1.50;;
44036;SDS011;62488;-37.670;-63.532;2022-08-18T04:14:17;1.23;;;1.13;;
44036;SDS011;62488;-37.670;-63.532;2022-08-18T04:16:48;1.13;;;1.08;;
44036;SDS011;62488;-37.670;-63.532;2022-08-18T04:19:15;1.42;;;1.30;;
44036;SDS011;62488;-37.670;-63.532;2022-08-18T04:21:43;1.42;;;1.33;;
44036;SDS011;62488;-37.670;-63.532;2022-08-18T04:24:12;1.58;;;1.48;;
44036;SDS011;62488;-37.670;-63.532;2022-08-18T04:26:41;1.93;;;1.10;;
44036;SDS011;62488;-37.670;-63.532;2022-08-18T04:29:09;1.60;;;1.33;;
44036;SDS011;62488;-37.670;-63.532;2022-08-18T04:31:38;1.02;;;1.02;;
44036;SDS011;62488;-37.670;-63.532;2022-08-18T04:34:05;1.67;;;1.33;;
44036;SDS011;62488;-37.670;-63.532;2022-08-18T04:36:33;1.40;;;1.30;;
44036;SDS011;62488;-37.670;-63.532;2022-08-18T04:39:01;1.60;;;1.10;;
44036;SDS011;62488;-37.670;-63.532;2022-08-18T04:41:30;0.93;;;0.93;;
44036;SDS011;62488;-37.670;-63.532;2022-08-18T04:43:57;1.20;;;1.08;;
44036;SDS011;62488;-37.670;-63.532;2022-08-18T04:48:54;1.00;;;1.00;;
44036;SDS011;62488;-37.670;-63.532;2022-08-18T04:51:26;2.58;;;1.17;;
44036;SDS011;62488;-37.670;-63.532;2022-08-18T04:53:55;1.17;;;1.08;;
44036;SDS011;62488;-37.670;-63.532;2022-08-18T04:56:26;1.05;;;1.05;;
44036;SDS011;62488;-37.670;-63.532;2022-08-18T05:01:38;0.93;;;0.93;;
44036;SDS011;62488;-37.670;-63.532;2022-08-18T05:04:07;1.52;;;1.08;;
44036;SDS011;62488;-37.670;-63.532;2022-08-18T05:06:38;2.75;;;0.90;;
44036;SDS011;62488;-37.670;-63.532;2022-08-18T05:09:06;1.00;;;1.00;;
44036;SDS011;62488;-37.670;-63.532;2022-08-18T05:11:35;1.08;;;1.05;;
44036;SDS011;62488;-37.670;-63.532;2022-08-18T05:14:04;1.10;;;1.10;;
44036;SDS011;62488;-37.670;-63.532;2022-08-18T05:16:34;1.20;;;1.20;;
44036;SDS011;62488;-37.670;-63.532;2022-08-18T05:19:03;1.45;;;1.25;;
44036;SDS011;62488;-37.670;-63.532;2022-08-18T05:21:31;1.75;;;1.10;;
44036;SDS011;62488;-37.670;-63.532;2022-08-18T05:23:59;1.30;;;1.23;;
44036;SDS011;62488;-37.670;-63.532;2022-08-18T05:26:26;1.45;;;1.35;;
44036;SDS011;62488;-37.670;-63.532;2022-08-18T05:28:53;1.40;;;1.30;;
44036;SDS011;62488;-37.670;-63.532;2022-08-18T05:31:21;1.73;;;1.63;;
44036;SDS011;62488;-37.670;-63.532;2022-08-18T05:33:50;1.23;;;1.13;;
44036;SDS011;62488;-37.670;-63.532;2022-08-18T05:41:39;3.20;;;1.17;;
44036;SDS011;62488;-37.670;-63.532;2022-08-18T05:44:11;1.13;;;0.90;;
44036;SDS011;62488;-37.670;-63.532;2022-08-18T05:46:59;1.20;;;1.10;;
44036;SDS011;62488;-37.670;-63.532;2022-08-18T05:49:31;1.38;;;1.27;;
44036;SDS011;62488;-37.670;-63.532;2022-08-18T05:52:02;5.55;;;1.50;;
44036;SDS011;62488;-37.670;-63.532;2022-08-18T05:54:39;1.30;;;1.20;;
44036;SDS011;62488;-37.670;-63.532;2022-08-18T05:57:29;2.08;;;1.20;;
44036;SDS011;62488;-37.670;-63.532;2022-08-18T06:00:03;3.13;;;1.02;;
44036;SDS011;62488;-37.670;-63.532;2022-08-18T06:02:41;0.90;;;0.90;;
44036;SDS011;62488;-37.670;-63.532;2022-08-18T06:05:18;1.00;;;1.00;;
44036;SDS011;62488;-37.670;-63.532;2022-08-18T06:07:56;1.13;;;1.02;;
44036;SDS011;62488;-37.670;-63.532;2022-08-18T06:10:27;1.33;;;1.20;;
44036;SDS011;62488;-37.670;-63.532;2022-08-18T06:12:57;0.90;;;0.90;;
44036;SDS011;62488;-37.670;-63.532;2022-08-18T06:18:30;1.37;;;1.27;;
44036;SDS011;62488;-37.670;-63.532;2022-08-18T06:21:04;1.60;;;1.50;;
44036;SDS011;62488;-37.670;-63.532;2022-08-18T06:26:20;1.38;;;1.27;;
44036;SDS011;62488;-37.670;-63.532;2022-08-18T06:29:08;1.38;;;1.27;;
44036;SDS011;62488;-37.670;-63.532;2022-08-18T06:40:32;2.65;;;2.45;;
44036;SDS011;62488;-37.670;-63.532;2022-08-18T06:42:59;1.95;;;1.75;;
44036;SDS011;62488;-37.670;-63.532;2022-08-18T06:45:32;1.80;;;1.65;;
44036;SDS011;62488;-37.670;-63.532;2022-08-18T06:50:55;1.10;;;1.10;;
44036;SDS011;62488;-37.670;-63.532;2022-08-18T06:56:24;1.08;;;1.08;;
44036;SDS011;62488;-37.670;-63.532;2022-08-18T07:01:49;1.10;;;1.10;;
44036;SDS011;62488;-37.670;-63.532;2022-08-18T07:09:58;1.10;;;1.10;;
44036;SDS011;62488;-37.670;-63.532;2022-08-18T07:12:26;1.20;;;1.10;;
44036;SDS011;62488;-37.670;-63.532;2022-08-18T07:14:56;1.30;;;1.20;;
44036;SDS011;62488;-37.670;-63.532;2022-08-18T07:17:32;0.90;;;0.90;;
44036;SDS011;62488;-37.670;-63.532;2022-08-18T07:20:18;1.40;;;1.30;;
44036;SDS011;62488;-37.670;-63.532;2022-08-18T07:25:29;2.42;;;1.20;;
44036;SDS011;62488;-37.670;-63.532;2022-08-18T07:28:09;1.10;;;1.10;;
44036;SDS011;62488;-37.670;-63.532;2022-08-18T07:31:08;1.25;;;1.25;;
44036;SDS011;62488;-37.670;-63.532;2022-08-18T07:33:39;2.00;;;1.50;;
44036;SDS011;62488;-37.670;-63.532;2022-08-18T07:36:08;1.75;;;1.65;;
44036;SDS011;62488;-37.670;-63.532;2022-08-18T07:38:42;1.45;;;1.35;;
44036;SDS011;62488;-37.670;-63.532;2022-08-18T07:41:37;1.63;;;1.52;;
44036;SDS011;62488;-37.670;-63.532;2022-08-18T07:44:23;1.70;;;1.60;;
44036;SDS011;62488;-37.670;-63.532;2022-08-18T07:49:46;2.28;;;2.08;;
44036;SDS011;62488;-37.670;-63.532;2022-08-18T07:55:30;1.77;;;1.67;;
44036;SDS011;62488;-37.670;-63.532;2022-08-18T08:06:18;1.85;;;1.63;;
44036;SDS011;62488;-37.670;-63.532;2022-08-18T08:11:35;1.60;;;1.50;;
44036;SDS011;62488;-37.670;-63.532;2022-08-18T08:17:09;1.60;;;1.50;;
44036;SDS011;62488;-37.670;-63.532;2022-08-18T08:25:23;1.13;;;1.13;;
44036;SDS011;62488;-37.670;-63.532;2022-08-18T08:34:01;1.33;;;1.23;;
44036;SDS011;62488;-37.670;-63.532;2022-08-18T08:36:31;1.33;;;1.23;;
44036;SDS011;62488;-37.670;-63.532;2022-08-18T08:39:25;1.67;;;1.58;;
44036;SDS011;62488;-37.670;-63.532;2022-08-18T08:42:15;1.45;;;1.35;;
44036;SDS011;62488;-37.670;-63.532;2022-08-18T08:44:51;1.80;;;1.70;;
44036;SDS011;62488;-37.670;-63.532;2022-08-18T08:48:26;1.50;;;1.40;;
44036;SDS011;62488;-37.670;-63.532;2022-08-18T08:50:26;1.92;;;1.73;;
44036;SDS011;62488;-37.670;-63.532;2022-08-18T08:53:00;2.33;;;1.15;;
44036;SDS011;62488;-37.670;-63.532;2022-08-18T08:55:42;1.30;;;1.20;;
44036;SDS011;62488;-37.670;-63.532;2022-08-18T09:00:53;1.25;;;1.20;;
44036;SDS011;62488;-37.670;-63.532;2022-08-18T09:06:35;1.23;;;1.13;;
44036;SDS011;62488;-37.670;-63.532;2022-08-18T09:09:07;1.00;;;1.00;;
44036;SDS011;62488;-37.670;-63.532;2022-08-18T09:28:09;1.42;;;1.27;;
44036;SDS011;62488;-37.670;-63.532;2022-08-18T09:30:41;2.75;;;1.25;;
44036;SDS011;62488;-37.670;-63.532;2022-08-18T09:38:13;1.75;;;1.65;;
44036;SDS011;62488;-37.670;-63.532;2022-08-18T09:41:12;1.77;;;1.48;;
44036;SDS011;62488;-37.670;-63.532;2022-08-18T09:44:02;1.42;;;1.33;;
44036;SDS011;62488;-37.670;-63.532;2022-08-18T09:51:48;2.58;;;1.52;;
44036;SDS011;62488;-37.670;-63.532;2022-08-18T09:54:18;1.57;;;1.20;;
44036;SDS011;62488;-37.670;-63.532;2022-08-18T10:00:18;1.33;;;1.23;;
44036;SDS011;62488;-37.670;-63.532;2022-08-18T10:24:29;1.88;;;1.13;;
44036;SDS011;62488;-37.670;-63.532;2022-08-18T10:27:03;3.28;;;1.92;;
44036;SDS011;62488;-37.670;-63.532;2022-08-18T10:29:46;2.58;;;2.05;;
44036;SDS011;62488;-37.670;-63.532;2022-08-18T10:32:17;3.65;;;3.00;;
44036;SDS011;62488;-37.670;-63.532;2022-08-18T10:34:50;3.00;;;2.22;;
44036;SDS011;62488;-37.670;-63.532;2022-08-18T10:37:25;2.17;;;1.98;;
44036;SDS011;62488;-37.670;-63.532;2022-08-18T10:56:03;1.70;;;1.60;;
44036;SDS011;62488;-37.670;-63.532;2022-08-18T11:06:19;3.95;;;1.35;;
44036;SDS011;62488;-37.670;-63.532;2022-08-18T11:08:51;3.13;;;1.23;;
44036;SDS011;62488;-37.670;-63.532;2022-08-18T11:11:32;1.10;;;1.10;;
44036;SDS011;62488;-37.670;-63.532;2022-08-18T11:16:55;2.50;;;1.10;;
44036;SDS011;62488;-37.670;-63.532;2022-08-18T11:19:37;1.08;;;1.08;;
44036;SDS011;62488;-37.670;-63.532;2022-08-18T11:22:19;1.08;;;1.08;;
44036;SDS011;62488;-37.670;-63.532;2022-08-18T11:24:48;1.20;;;1.10;;
44036;SDS011;62488;-37.670;-63.532;2022-08-18T11:27:21;1.38;;;1.30;;
44036;SDS011;62488;-37.670;-63.532;2022-08-18T11:29:50;2.25;;;2.00;;
44036;SDS011;62488;-37.670;-63.532;2022-08-18T11:32:32;1.52;;;1.42;;
44036;SDS011;62488;-37.670;-63.532;2022-08-18T11:35:05;1.52;;;1.33;;
44036;SDS011;62488;-37.670;-63.532;2022-08-18T11:40:29;1.73;;;1.63;;
44036;SDS011;62488;-37.670;-63.532;2022-08-18T11:53:56;28.13;;;4.45;;
44036;SDS011;62488;-37.670;-63.532;2022-08-18T11:56:43;2.28;;;2.15;;
44036;SDS011;62488;-37.670;-63.532;2022-08-18T12:01:51;2.83;;;2.00;;
44036;SDS011;62488;-37.670;-63.532;2022-08-18T12:04:20;4.53;;;2.47;;
44036;SDS011;62488;-37.670;-63.532;2022-08-18T12:09:40;3.80;;;2.38;;
44036;SDS011;62488;-37.670;-63.532;2022-08-18T12:12:33;3.05;;;2.50;;
44036;SDS011;62488;-37.670;-63.532;2022-08-18T12:17:43;3.80;;;2.97;;
44036;SDS011;62488;-37.670;-63.532;2022-08-18T12:20:11;7.85;;;2.40;;
44036;SDS011;62488;-37.670;-63.532;2022-08-18T12:22:41;2.60;;;2.30;;
44036;SDS011;62488;-37.670;-63.532;2022-08-18T12:25:11;3.45;;;2.38;;
44036;SDS011;62488;-37.670;-63.532;2022-08-18T12:27:41;2.70;;;2.00;;
44036;SDS011;62488;-37.670;-63.532;2022-08-18T12:30:09;2.97;;;1.90;;
44036;SDS011;62488;-37.670;-63.532;2022-08-18T12:32:38;1.73;;;1.63;;
44036;SDS011;62488;-37.670;-63.532;2022-08-18T12:35:06;2.28;;;1.50;;
44036;SDS011;62488;-37.670;-63.532;2022-08-18T12:37:36;7.30;;;2.53;;
44036;SDS011;62488;-37.670;-63.532;2022-08-18T12:40:07;2.38;;;1.65;;
44036;SDS011;62488;-37.670;-63.532;2022-08-18T12:42:34;1.95;;;1.55;;
44036;SDS011;62488;-37.670;-63.532;2022-08-18T12:45:01;2.92;;;1.80;;
44036;SDS011;62488;-37.670;-63.532;2022-08-18T12:47:29;3.13;;;1.95;;
44036;SDS011;62488;-37.670;-63.532;2022-08-18T12:49:56;2.08;;;1.73;;
44036;SDS011;62488;-37.670;-63.532;2022-08-18T12:52:23;2.88;;;1.50;;
44036;SDS011;62488;-37.670;-63.532;2022-08-18T12:54:50;4.25;;;1.42;;
44036;SDS011;62488;-37.670;-63.532;2022-08-18T12:57:25;3.13;;;1.95;;
44036;SDS011;62488;-37.670;-63.532;2022-08-18T12:59:54;2.97;;;1.80;;
44036;SDS011;62488;-37.670;-63.532;2022-08-18T13:02:23;2.08;;;1.60;;
44036;SDS011;62488;-37.670;-63.532;2022-08-18T13:04:50;2.60;;;1.80;;
44036;SDS011;62488;-37.670;-63.532;2022-08-18T13:07:17;2.22;;;1.83;;
44036;SDS011;62488;-37.670;-63.532;2022-08-18T13:09:44;3.30;;;1.65;;
44036;SDS011;62488;-37.670;-63.532;2022-08-18T13:12:11;3.20;;;1.48;;
44036;SDS011;62488;-37.670;-63.532;2022-08-18T13:14:39;9.27;;;2.10;;
44036;SDS011;62488;-37.670;-63.532;2022-08-18T13:17:06;1.15;;;1.02;;
44036;SDS011;62488;-37.670;-63.532;2022-08-18T13:19:34;2.00;;;1.08;;
44036;SDS011;62488;-37.670;-63.532;2022-08-18T13:22:02;3.95;;;1.77;;
44036;SDS011;62488;-37.670;-63.532;2022-08-18T13:24:29;5.25;;;1.58;;
44036;SDS011;62488;-37.670;-63.532;2022-08-18T13:26:56;1.20;;;1.10;;
44036;SDS011;62488;-37.670;-63.532;2022-08-18T13:29:23;1.33;;;0.80;;
44036;SDS011;62488;-37.670;-63.532;2022-08-18T13:31:50;9.18;;;1.65;;
44036;SDS011;62488;-37.670;-63.532;2022-08-18T13:34:22;1.20;;;1.10;;
44036;SDS011;62488;-37.670;-63.532;2022-08-18T13:36:52;1.30;;;1.20;;
44036;SDS011;62488;-37.670;-63.532;2022-08-18T13:39:20;1.30;;;1.20;;
44036;SDS011;62488;-37.670;-63.532;2022-08-18T13:41:49;9.73;;;2.35;;
44036;SDS011;62488;-37.670;-63.532;2022-08-18T13:44:18;2.70;;;1.85;;
44036;SDS011;62488;-37.670;-63.532;2022-08-18T13:46:47;2.22;;;1.35;;
44036;SDS011;62488;-37.670;-63.532;2022-08-18T13:49:20;3.72;;;1.30;;
44036;SDS011;62488;-37.670;-63.532;2022-08-18T13:51:49;7.53;;;2.47;;
44036;SDS011;62488;-37.670;-63.532;2022-08-18T13:54:25;2.65;;;1.48;;
44036;SDS011;62488;-37.670;-63.532;2022-08-18T13:56:57;4.72;;;1.83;;
44036;SDS011;62488;-37.670;-63.532;2022-08-18T13:59:25;6.22;;;2.10;;
44036;SDS011;62488;-37.670;-63.532;2022-08-18T14:01:56;14.75;;;1.98;;
44036;SDS011;62488;-37.670;-63.532;2022-08-18T14:04:24;24.05;;;2.67;;
44036;SDS011;62488;-37.670;-63.532;2022-08-18T14:06:52;12.77;;;1.60;;
44036;SDS011;62488;-37.670;-63.532;2022-08-18T14:09:20;6.18;;;1.58;;
44036;SDS011;62488;-37.670;-63.532;2022-08-18T14:11:51;12.45;;;2.00;;
44036;SDS011;62488;-37.670;-63.532;2022-08-18T14:14:18;21.52;;;1.95;;
44036;SDS011;62488;-37.670;-63.532;2022-08-18T14:19:14;3.50;;;0.98;;
44036;SDS011;62488;-37.670;-63.532;2022-08-18T14:22:00;3.80;;;0.93;;
44036;SDS011;62488;-37.670;-63.532;2022-08-18T14:24:45;2.28;;;0.90;;
44036;SDS011;62488;-37.670;-63.532;2022-08-18T14:27:35;0.70;;;0.70;;
44036;SDS011;62488;-37.670;-63.532;2022-08-18T14:30:04;1.60;;;0.93;;
44036;SDS011;62488;-37.670;-63.532;2022-08-18T14:32:33;0.80;;;0.70;;
44036;SDS011;62488;-37.670;-63.532;2022-08-18T14:35:02;1.23;;;0.80;;
44036;SDS011;62488;-37.670;-63.532;2022-08-18T14:37:31;1.77;;;0.93;;
44036;SDS011;62488;-37.670;-63.532;2022-08-18T14:39:57;0.60;;;0.60;;
44036;SDS011;62488;-37.670;-63.532;2022-08-18T14:42:25;0.88;;;0.85;;
44036;SDS011;62488;-37.670;-63.532;2022-08-18T14:44:52;1.35;;;0.70;;
44036;SDS011;62488;-37.670;-63.532;2022-08-18T14:47:22;2.50;;;0.98;;
44036;SDS011;62488;-37.670;-63.532;2022-08-18T14:52:19;3.10;;;1.30;;
44036;SDS011;62488;-37.670;-63.532;2022-08-18T14:54:48;1.10;;;1.00;;
44036;SDS011;62488;-37.670;-63.532;2022-08-18T14:57:15;1.48;;;1.38;;
44036;SDS011;62488;-37.670;-63.532;2022-08-18T14:59:42;1.80;;;1.65;;
44036;SDS011;62488;-37.670;-63.532;2022-08-18T15:02:10;1.70;;;0.95;;
44036;SDS011;62488;-37.670;-63.532;2022-08-18T15:04:37;3.15;;;1.10;;
44036;SDS011;62488;-37.670;-63.532;2022-08-18T15:07:04;1.23;;;0.82;;
44036;SDS011;62488;-37.670;-63.532;2022-08-18T15:09:32;1.08;;;0.88;;
44036;SDS011;62488;-37.670;-63.532;2022-08-18T15:11:59;1.15;;;0.90;;
44036;SDS011;62488;-37.670;-63.532;2022-08-18T15:14:27;10.73;;;1.38;;
44036;SDS011;62488;-37.670;-63.532;2022-08-18T15:16:56;7.77;;;1.20;;
44036;SDS011;62488;-37.670;-63.532;2022-08-18T15:19:24;1.17;;;0.82;;
44036;SDS011;62488;-37.670;-63.532;2022-08-18T15:21:51;0.40;;;0.40;;
44036;SDS011;62488;-37.670;-63.532;2022-08-18T15:24:41;0.80;;;0.80;;
44036;SDS011;62488;-37.670;-63.532;2022-08-18T15:27:34;2.25;;;0.90;;
44036;SDS011;62488;-37.670;-63.532;2022-08-18T15:30:07;1.77;;;0.70;;
44036;SDS011;62488;-37.670;-63.532;2022-08-18T15:32:45;0.70;;;0.70;;
44036;SDS011;62488;-37.670;-63.532;2022-08-18T15:35:14;7.47;;;1.42;;
44036;SDS011;62488;-37.670;-63.532;2022-08-18T15:37:41;0.60;;;0.60;;
44036;SDS011;62488;-37.670;-63.532;2022-08-18T15:42:50;0.80;;;0.80;;
44036;SDS011;62488;-37.670;-63.532;2022-08-18T15:45:22;0.70;;;0.70;;
44036;SDS011;62488;-37.670;-63.532;2022-08-18T15:47:53;6.43;;;0.90;;
44036;SDS011;62488;-37.670;-63.532;2022-08-18T15:50:20;0.80;;;0.75;;
44036;SDS011;62488;-37.670;-63.532;2022-08-18T15:52:52;1.02;;;0.70;;
44036;SDS011;62488;-37.670;-63.532;2022-08-18T15:55:26;1.65;;;1.00;;
44036;SDS011;62488;-37.670;-63.532;2022-08-18T15:57:54;3.95;;;0.60;;
44036;SDS011;62488;-37.670;-63.532;2022-08-18T16:00:22;0.93;;;0.77;;
44036;SDS011;62488;-37.670;-63.532;2022-08-18T16:02:55;2.00;;;1.00;;
44036;SDS011;62488;-37.670;-63.532;2022-08-18T16:05:27;0.95;;;0.90;;
44036;SDS011;62488;-37.670;-63.532;2022-08-18T16:07:56;1.05;;;0.68;;
44036;SDS011;62488;-37.670;-63.532;2022-08-18T16:10:27;10.57;;;1.52;;
44036;SDS011;62488;-37.670;-63.532;2022-08-18T16:12:56;2.40;;;1.15;;
44036;SDS011;62488;-37.670;-63.532;2022-08-18T16:15:24;1.83;;;0.80;;
44036;SDS011;62488;-37.670;-63.532;2022-08-18T16:17:52;0.93;;;0.70;;
44036;SDS011;62488;-37.670;-63.532;2022-08-18T16:20:21;2.75;;;0.93;;
44036;SDS011;62488;-37.670;-63.532;2022-08-18T16:22:49;2.90;;;0.83;;
44036;SDS011;62488;-37.670;-63.532;2022-08-18T16:25:17;0.77;;;0.68;;
44036;SDS011;62488;-37.670;-63.532;2022-08-18T16:27:45;1.20;;;0.60;;
44036;SDS011;62488;-37.670;-63.532;2022-08-18T16:30:14;7.03;;;2.35;;
44036;SDS011;62488;-37.670;-63.532;2022-08-18T16:32:46;0.60;;;0.60;;
44036;SDS011;62488;-37.670;-63.532;2022-08-18T16:35:14;2.25;;;1.00;;
44036;SDS011;62488;-37.670;-63.532;2022-08-18T16:37:43;4.22;;;0.77;;
44036;SDS011;62488;-37.670;-63.532;2022-08-18T16:40:12;3.25;;;1.45;;
44036;SDS011;62488;-37.670;-63.532;2022-08-18T16:42:39;2.15;;;0.80;;
44036;SDS011;62488;-37.670;-63.532;2022-08-18T16:45:09;2.47;;;0.70;;
44036;SDS011;62488;-37.670;-63.532;2022-08-18T16:47:36;1.38;;;0.85;;
44036;SDS011;62488;-37.670;-63.532;2022-08-18T16:50:14;4.95;;;0.90;;
44036;SDS011;62488;-37.670;-63.532;2022-08-18T16:52:44;5.70;;;0.80;;
44036;SDS011;62488;-37.670;-63.532;2022-08-18T16:55:11;1.52;;;0.77;;
44036;SDS011;62488;-37.670;-63.532;2022-08-18T16:57:39;3.25;;;0.88;;
44036;SDS011;62488;-37.670;-63.532;2022-08-18T17:00:27;2.45;;;0.70;;
44036;SDS011;62488;-37.670;-63.532;2022-08-18T17:03:14;1.98;;;0.73;;
44036;SDS011;62488;-37.670;-63.532;2022-08-18T17:06:03;0.93;;;0.70;;
44036;SDS011;62488;-37.670;-63.532;2022-08-18T17:08:33;0.60;;;0.60;;
44036;SDS011;62488;-37.670;-63.532;2022-08-18T17:11:05;1.33;;;0.70;;
44036;SDS011;62488;-37.670;-63.532;2022-08-18T17:13:35;2.28;;;0.80;;
44036;SDS011;62488;-37.670;-63.532;2022-08-18T17:16:04;7.30;;;1.00;;
44036;SDS011;62488;-37.670;-63.532;2022-08-18T17:18:32;3.20;;;0.93;;
44036;SDS011;62488;-37.670;-63.532;2022-08-18T17:21:04;4.82;;;0.90;;
44036;SDS011;62488;-37.670;-63.532;2022-08-18T17:23:35;0.50;;;0.50;;
44036;SDS011;62488;-37.670;-63.532;2022-08-18T17:26:02;0.65;;;0.50;;
44036;SDS011;62488;-37.670;-63.532;2022-08-18T17:28:35;3.42;;;0.60;;
44036;SDS011;62488;-37.670;-63.532;2022-08-18T17:31:10;4.45;;;0.90;;
44036;SDS011;62488;-37.670;-63.532;2022-08-18T17:33:39;0.70;;;0.70;;
44036;SDS011;62488;-37.670;-63.532;2022-08-18T17:36:14;1.05;;;0.70;;
44036;SDS011;62488;-37.670;-63.532;2022-08-18T17:38:57;1.00;;;0.90;;
44036;SDS011;62488;-37.670;-63.532;2022-08-18T17:41:26;0.85;;;0.73;;
44036;SDS011;62488;-37.670;-63.532;2022-08-18T17:43:55;0.88;;;0.70;;
44036;SDS011;62488;-37.670;-63.532;2022-08-18T17:46:26;1.02;;;0.80;;